Aeroporto :
LOGIN :

Iscrizione | Disclaimer

   EN    FR    IT 

 










Sommario :    VFR   VFR Marginale   IFR   IFR Intensivo   IFR Molto Intensivo
Visibilità : 
Base nubi : 
>= 8 km
>= 3000ft
5 / 8 km
1000 / 3000 ft
1500m / 5 km
500 / 1000 ft
800 / 1500m
200 / 500 ft
< 800m
< 200 ft
Simboli :   Temporali  Nebbia  Neve Forte  Precipitazioni Forti  Vento > 20 kt
SIGMETs :   Varie  Temporali  Ghiacco  Turbolenza  Onda orograficha  Ceneri Vulcaniche







- Altitudine del aeroporto : 404 ft
- Codice IATA : WRO


EPWR - Wroclaw

ULTIMO METAR :
  • 211600Z VRB02KT CAVOK 19/02 Q1020

METARs OBSOLETI :
  • 211530Z 35007KT 320V030 CAVOK 19/02 Q1020
  • 211500Z 35003KT 270V050 CAVOK 19/00 Q1021
  • 211430Z 34004KT 280V010 CAVOK 19/01 Q1021
  • 211400Z VRB03KT CAVOK 19/03 Q1021
  • 211330Z 20004KT 150V230 CAVOK 19/01 Q1022

TAF TAF EPWR
Valido dal 21 a 15 ore il 22 a 15 ore UTC


211430Z 2115/2215 VRB02KT CAVOK
TEMPO 2115/2124 36010KT
BECMG 2205/2208 09012KT
PROB30
TEMPO 2212/2215 10015G25KT SCT040CB
Nessun NOTAM noto per questo aeroporto.



MetMap, La meteo Aeronautica in un colpo d'occhio ! - Copyright ORBIFLY Dicembre 2007 - Disclaimer

ORBIFLY MET'MAP TEAM :

Programmazione e sviluppo : Alexandra Zaïnal
Concezione e sviluppo : Baudouin d'Aumeries
Co-Programmazione e sviluppo : Marc-Olivier Méhu
Supporto tecnico e logistico : Manuel Goepfert
Aiuto per la traduzione : Arnaldo La Scala

Contatto : metmap@orbifly.com




FONTI E CREDITI :

   NOAA